createdAt,value
2019-02-27T00:00:34.142Z,55.08
2019-02-27T00:03:02.925Z,56.35
2019-02-27T00:05:31.654Z,55.45
2019-02-27T00:08:00.432Z,56.92
2019-02-27T00:10:29.215Z,58.87
2019-02-27T00:12:58.008Z,60.20
2019-02-27T00:15:26.823Z,57.15
2019-02-27T00:17:55.804Z,56.98
2019-02-27T00:20:24.667Z,55.40
2019-02-27T00:22:53.400Z,56.70
2019-02-27T00:25:22.154Z,57.93
2019-02-27T00:27:50.957Z,57.25
2019-02-27T00:30:19.729Z,57.13
2019-02-27T00:32:51.014Z,57.00
2019-02-27T00:35:18.993Z,50.88
2019-02-27T00:37:51.857Z,53.92
2019-02-27T00:40:18.217Z,53.98
2019-02-27T00:42:47.024Z,53.55
2019-02-27T00:45:15.788Z,55.65
2019-02-27T00:47:44.520Z,54.45
2019-02-27T00:50:13.280Z,54.60
2019-02-27T00:52:42.348Z,53.30
2019-02-27T00:55:11.144Z,54.50
2019-02-27T00:57:39.887Z,52.25
2019-02-27T01:00:14.713Z,55.15
2019-02-27T01:02:43.526Z,54.58
2019-02-27T01:05:12.449Z,53.42
2019-02-27T01:07:41.332Z,53.92
2019-02-27T01:10:13.087Z,50.48
2019-02-27T01:12:41.939Z,54.77
2019-02-27T01:15:12.139Z,50.58
2019-02-27T01:17:40.918Z,53.30
2019-02-27T01:20:12.245Z,53.95
2019-02-27T01:22:41.030Z,52.73
2019-02-27T01:25:09.885Z,55.17
2019-02-27T01:27:38.754Z,52.75
2019-02-27T01:30:11.001Z,52.83
2019-02-27T01:32:39.752Z,52.10
2019-02-27T01:35:10.185Z,52.45
2019-02-27T01:37:39.023Z,51.75
2019-02-27T01:40:17.141Z,51.23
2019-02-27T01:42:44.238Z,51.40
2019-02-27T01:45:15.289Z,51.75
2019-02-27T01:47:44.072Z,49.03
2019-02-27T01:50:24.530Z,52.33
2019-02-27T01:52:53.305Z,51.80
2019-02-27T01:55:22.664Z,51.80
2019-02-27T01:57:51.467Z,50.88
2019-02-27T02:00:23.013Z,49.80
2019-02-27T02:02:50.878Z,53.30
2019-02-27T02:05:19.904Z,50.95
2019-02-27T02:07:48.924Z,52.85
2019-02-27T02:10:18.008Z,50.40
2019-02-27T02:12:52.881Z,50.52
2019-02-27T02:15:27.917Z,50.43
2019-02-27T02:18:11.878Z,50.58
2019-02-27T02:20:50.941Z,51.20
2019-02-27T02:23:25.208Z,51.33
2019-02-27T02:26:01.352Z,57.10
2019-02-27T02:29:04.738Z,55.30
2019-02-27T02:31:57.658Z,56.05
2019-02-27T02:34:41.305Z,54.35
2019-02-27T02:37:18.886Z,56.75
2019-02-27T02:40:07.001Z,58.92
2019-02-27T02:43:03.132Z,54.65
2019-02-27T02:45:49.438Z,56.60
2019-02-27T02:48:31.020Z,57.27
2019-02-27T02:51:28.980Z,59.53
2019-02-27T02:54:05.261Z,59.60
2019-02-27T02:56:42.282Z,58.17
2019-02-27T02:59:46.958Z,60.65
2019-02-27T03:02:36.720Z,57.73
2019-02-27T03:05:37.040Z,60.28
2019-02-27T03:08:11.670Z,58.35
2019-02-27T03:10:52.334Z,60.75
2019-02-27T03:13:47.955Z,58.68
2019-02-27T03:16:41.121Z,60.60
2019-02-27T03:19:26.062Z,59.63
2019-02-27T03:22:15.620Z,58.08
2019-02-27T03:24:53.223Z,57.55
2019-02-27T03:27:30.932Z,59.85
2019-02-27T03:30:17.487Z,56.73
2019-02-27T03:33:23.063Z,57.27
2019-02-27T03:36:18.129Z,55.75
2019-02-27T03:39:07.314Z,57.40
2019-02-27T03:41:41.827Z,57.83
2019-02-27T03:44:13.730Z,55.95
2019-02-27T03:46:51.694Z,57.33
2019-02-27T03:49:45.932Z,55.38
2019-02-27T03:52:36.327Z,55.48
2019-02-27T03:55:32.859Z,52.90
2019-02-27T03:58:34.818Z,53.45
2019-02-27T04:01:09.374Z,51.58
2019-02-27T04:03:57.738Z,53.35
2019-02-27T04:06:46.081Z,52.05
2019-02-27T04:09:18.551Z,51.48
2019-02-27T04:11:45.305Z,51.80
2019-02-27T04:14:28.232Z,54.00
2019-02-27T04:16:57.090Z,52.65
2019-02-27T04:19:25.863Z,50.78
2019-02-27T04:22:00.455Z,50.33
2019-02-27T04:24:25.222Z,51.55
2019-02-27T04:26:54.084Z,52.13
2019-02-27T04:29:22.869Z,50.58
2019-02-27T04:31:51.699Z,49.73
2019-02-27T04:34:20.447Z,48.63
2019-02-27T04:36:49.206Z,47.95
2019-02-27T04:39:17.977Z,47.60
2019-02-27T04:41:46.758Z,47.33
2019-02-27T04:44:15.558Z,48.65
2019-02-27T04:46:44.321Z,114.67
2019-02-27T04:49:13.360Z,55.25
2019-02-27T04:51:42.148Z,45.95
2019-02-27T04:54:10.990Z,45.28
2019-02-27T04:56:39.791Z,45.63
2019-02-27T04:59:08.576Z,43.70
2019-02-27T05:01:37.462Z,43.48
2019-02-27T05:04:06.344Z,42.85
2019-02-27T05:06:35.076Z,44.45
2019-02-27T05:09:05.804Z,42.20
2019-02-27T05:11:34.561Z,42.45
2019-02-27T05:14:03.408Z,41.37
2019-02-27T05:16:32.190Z,44.23
2019-02-27T05:19:03.886Z,41.75
2019-02-27T05:21:31.452Z,39.55
2019-02-27T05:24:00.200Z,37.05
2019-02-27T05:26:28.978Z,39.15
2019-02-27T05:28:57.817Z,37.63
2019-02-27T05:31:26.558Z,37.40
2019-02-27T05:33:55.317Z,36.42
2019-02-27T05:36:24.077Z,34.40
2019-02-27T05:38:52.821Z,35.65
2019-02-27T05:41:21.657Z,34.27
2019-02-27T05:43:50.705Z,36.80
2019-02-27T05:46:19.484Z,35.23
2019-02-27T05:48:50.798Z,36.45
2019-02-27T05:51:18.734Z,35.75
2019-02-27T05:53:47.610Z,36.77
2019-02-27T05:56:16.543Z,38.30
2019-02-27T05:58:45.340Z,36.00
2019-02-27T06:01:14.088Z,36.20
2019-02-27T06:03:42.841Z,38.85
2019-02-27T06:06:12.376Z,41.83
2019-02-27T06:08:41.254Z,59.63
2019-02-27T06:11:10.001Z,36.63
2019-02-27T06:13:38.760Z,36.17
2019-02-27T06:16:09.156Z,36.30
2019-02-27T06:18:38.112Z,34.95
2019-02-27T06:21:06.900Z,36.73
2019-02-27T06:23:37.836Z,35.63
2019-02-27T06:26:06.214Z,37.30
2019-02-27T06:28:35.047Z,36.25
2019-02-27T06:31:03.882Z,36.15
2019-02-27T06:33:32.626Z,33.18
2019-02-27T06:36:01.449Z,36.53
2019-02-27T06:38:30.264Z,33.80
2019-02-27T06:40:59.464Z,34.50
2019-02-27T06:43:28.327Z,35.17
2019-02-27T06:45:57.209Z,36.70
2019-02-27T06:48:26.064Z,35.33
2019-02-27T06:50:54.804Z,35.73
2019-02-27T06:53:23.603Z,33.75
2019-02-27T06:55:52.377Z,34.92
2019-02-27T06:58:21.147Z,34.67
2019-02-27T07:00:49.898Z,35.25
2019-02-27T07:03:18.690Z,34.43
2019-02-27T07:05:48.293Z,31.97
2019-02-27T07:08:17.629Z,32.08
2019-02-27T07:10:46.368Z,31.15
2019-02-27T07:13:15.232Z,31.65
2019-02-27T07:15:47.909Z,31.95
2019-02-27T07:18:14.584Z,31.12
2019-02-27T07:20:43.354Z,45.55
2019-02-27T07:23:12.110Z,29.48
2019-02-27T07:25:42.170Z,29.30
2019-02-27T07:28:11.370Z,30.12
2019-02-27T07:30:42.476Z,29.70
2019-02-27T07:33:10.748Z,29.95
2019-02-27T07:35:39.492Z,29.77
2019-02-27T07:38:08.248Z,33.63
2019-02-27T07:40:37.023Z,27.58
2019-02-27T07:43:06.406Z,27.73
2019-02-27T07:45:35.211Z,27.02
2019-02-27T07:48:04.060Z,27.35
2019-02-27T07:50:32.854Z,28.02
2019-02-27T07:53:01.622Z,27.32
2019-02-27T07:55:30.358Z,26.07
2019-02-27T07:57:59.310Z,28.00
2019-02-27T08:00:28.100Z,25.23
2019-02-27T08:02:57.226Z,33.48
2019-02-27T08:05:44.583Z,27.58
2019-02-27T08:08:13.440Z,26.50
2019-02-27T08:10:42.270Z,26.27
2019-02-27T08:13:11.019Z,27.87
2019-02-27T08:15:39.858Z,28.10
2019-02-27T08:18:08.749Z,26.97
2019-02-27T08:20:37.629Z,26.55
2019-02-27T08:23:06.994Z,26.85
2019-02-27T08:25:38.496Z,27.98
2019-02-27T08:28:07.256Z,28.17
2019-02-27T08:30:36.027Z,27.87
2019-02-27T08:33:08.148Z,27.32
2019-02-27T08:35:35.319Z,26.62
2019-02-27T08:38:04.097Z,26.97
2019-02-27T08:40:32.858Z,26.93
2019-02-27T08:43:01.660Z,26.77
2019-02-27T08:45:30.139Z,26.40
2019-02-27T08:47:58.889Z,26.52
2019-02-27T08:50:29.204Z,26.97
2019-02-27T08:52:58.152Z,27.10
2019-02-27T08:55:27.001Z,26.60
2019-02-27T08:57:57.024Z,26.97
2019-02-27T09:00:31.096Z,28.67
2019-02-27T09:03:02.375Z,28.10
2019-02-27T09:05:30.171Z,29.47
2019-02-27T09:07:58.734Z,26.80
2019-02-27T09:10:30.397Z,28.20
2019-02-27T09:15:27.733Z,28.17
2019-02-27T09:17:59.101Z,29.27
2019-02-27T09:20:26.998Z,29.20
2019-02-27T09:22:55.913Z,28.90
2019-02-27T09:25:24.938Z,28.80
2019-02-27T09:27:53.670Z,28.73
2019-02-27T09:30:29.467Z,27.90
2019-02-27T09:32:56.910Z,28.20
2019-02-27T09:35:25.457Z,29.30
2019-02-27T09:37:53.910Z,28.80
2019-02-27T09:40:24.391Z,30.03
2019-02-27T09:42:53.746Z,29.50
2019-02-27T09:45:30.618Z,30.47
2019-02-27T09:48:00.860Z,28.77
2019-02-27T09:50:34.517Z,28.53
2019-02-27T09:53:04.209Z,27.07
2019-02-27T09:55:32.911Z,30.07
2019-02-27T09:58:01.692Z,25.73
2019-02-27T10:00:44.841Z,27.80
2019-02-27T10:03:13.304Z,26.50
2019-02-27T10:05:41.810Z,25.47
2019-02-27T10:08:11.645Z,26.07
2019-02-27T10:10:44.860Z,26.90
2019-02-27T10:13:10.524Z,25.70
2019-02-27T10:15:39.274Z,25.07
2019-02-27T10:18:07.837Z,23.13
2019-02-27T10:20:37.309Z,25.20
2019-02-27T10:23:06.621Z,21.93
2019-02-27T10:25:35.220Z,23.83
2019-02-27T10:28:04.816Z,22.83
2019-02-27T10:30:33.438Z,20.70
2019-02-27T10:33:03.369Z,20.77
2019-02-27T10:35:34.548Z,21.30
2019-02-27T10:38:02.660Z,22.17
2019-02-27T10:40:31.145Z,21.10
2019-02-27T10:42:59.742Z,22.67
2019-02-27T10:45:28.464Z,20.93
2019-02-27T10:47:56.944Z,21.60
2019-02-27T10:50:25.497Z,19.03
2019-02-27T10:52:53.992Z,20.57
2019-02-27T10:55:23.143Z,23.63
2019-02-27T10:57:51.739Z,26.43
2019-02-27T11:00:28.986Z,28.57
2019-02-27T11:02:57.828Z,43.73
2019-02-27T11:05:28.079Z,28.70
2019-02-27T11:07:56.603Z,21.20
2019-02-27T11:10:25.354Z,20.80
2019-02-27T11:12:53.914Z,19.87
2019-02-27T11:15:23.158Z,20.57
2019-02-27T11:17:51.684Z,19.63
2019-02-27T11:20:21.772Z,19.77
2019-02-27T11:22:50.529Z,18.90
2019-02-27T11:25:22.555Z,18.00
2019-02-27T11:27:51.797Z,19.10
2019-02-27T11:30:35.943Z,20.07
2019-02-27T11:33:01.989Z,19.47
2019-02-27T11:35:30.566Z,19.33
2019-02-27T11:37:59.135Z,21.60
2019-02-27T11:40:28.082Z,19.80
2019-02-27T11:42:56.747Z,20.40
2019-02-27T11:45:25.556Z,17.67
2019-02-27T11:47:54.067Z,19.23
2019-02-27T11:50:22.663Z,20.70
2019-02-27T11:52:51.466Z,18.57
2019-02-27T11:55:21.376Z,18.50
2019-02-27T11:57:50.040Z,17.83
2019-02-27T12:00:23.833Z,19.87
2019-02-27T12:02:52.463Z,17.40
2019-02-27T12:05:20.925Z,18.70
2019-02-27T12:07:51.293Z,19.60
2019-02-27T12:10:30.996Z,17.90
2019-02-27T12:13:01.223Z,18.30
2019-02-27T12:15:30.155Z,18.20
2019-02-27T12:18:01.478Z,16.53
2019-02-27T12:20:28.977Z,17.47
2019-02-27T12:22:57.526Z,17.90
2019-02-27T12:25:29.028Z,18.03
2019-02-27T12:27:56.752Z,18.30
2019-02-27T12:30:27.796Z,18.40
2019-02-27T12:32:57.048Z,20.33
2019-02-27T12:35:28.248Z,16.13
2019-02-27T12:37:56.762Z,18.07
2019-02-27T12:40:25.434Z,17.30
2019-02-27T12:42:54.256Z,16.93
2019-02-27T12:45:29.577Z,16.43
2019-02-27T12:47:57.895Z,17.40
2019-02-27T12:50:31.096Z,17.43
2019-02-27T12:52:59.014Z,17.03
2019-02-27T12:55:27.536Z,17.60
2019-02-27T12:57:56.040Z,16.73
2019-02-27T13:00:31.935Z,14.73
2019-02-27T13:03:00.500Z,14.67
2019-02-27T13:05:29.435Z,12.80
2019-02-27T13:07:58.037Z,14.63
2019-02-27T13:10:33.159Z,13.57
2019-02-27T13:12:59.563Z,14.73
2019-02-27T13:15:29.949Z,13.70
2019-02-27T13:17:58.616Z,14.50
2019-02-27T13:20:34.428Z,15.13
2019-02-27T13:23:05.137Z,14.50
2019-02-27T13:25:33.898Z,12.50
2019-02-27T13:28:02.376Z,13.00
2019-02-27T13:30:30.944Z,13.60
2019-02-27T13:33:01.244Z,12.00
2019-02-27T13:35:29.624Z,13.03
2019-02-27T13:37:58.123Z,12.40
2019-02-27T13:40:35.155Z,11.80
2019-02-27T13:43:01.206Z,12.47
2019-02-27T13:45:33.270Z,12.63
2019-02-27T13:48:04.978Z,14.23
2019-02-27T13:50:32.092Z,13.53
2019-02-27T13:53:00.591Z,14.53
2019-02-27T13:55:29.099Z,16.73
2019-02-27T13:57:59.769Z,15.20
2019-02-27T14:00:31.546Z,16.50
2019-02-27T14:03:00.000Z,14.40
2019-02-27T14:05:29.554Z,15.97
2019-02-27T14:07:58.769Z,15.20
2019-02-27T14:10:32.277Z,13.80
2019-02-27T14:13:00.938Z,14.30
2019-02-27T14:15:31.357Z,13.87
2019-02-27T14:18:01.303Z,15.30
2019-02-27T14:20:29.965Z,13.23
2019-02-27T14:22:58.428Z,12.60
2019-02-27T14:25:33.651Z,12.70
2019-02-27T14:28:02.183Z,12.70
2019-02-27T14:30:39.097Z,12.73
2019-02-27T14:33:07.663Z,11.57
2019-02-27T14:35:36.584Z,12.50
2019-02-27T14:38:05.443Z,13.13
2019-02-27T14:40:37.653Z,12.63
2019-02-27T14:43:04.719Z,13.87
2019-02-27T14:45:33.494Z,13.33
2019-02-27T14:48:01.976Z,13.80
2019-02-27T14:50:33.487Z,15.10
2019-02-27T14:53:01.064Z,14.07
2019-02-27T14:55:29.566Z,12.97
2019-02-27T14:57:58.049Z,12.40
2019-02-27T15:00:31.037Z,12.43
2019-02-27T15:02:59.539Z,13.27
2019-02-27T15:05:28.035Z,14.13
2019-02-27T15:07:56.570Z,15.07
2019-02-27T15:10:25.392Z,14.27
2019-02-27T15:12:55.532Z,13.73
2019-02-27T15:15:28.836Z,14.00
2019-02-27T15:17:57.602Z,14.60
2019-02-27T15:20:27.587Z,14.17
2019-02-27T15:22:56.508Z,14.87
2019-02-27T15:25:27.180Z,13.60
2019-02-27T15:27:58.377Z,15.10
2019-02-27T15:30:27.557Z,15.00
2019-02-27T15:32:56.051Z,15.13
2019-02-27T15:35:24.514Z,14.87
2019-02-27T15:37:53.119Z,13.83
2019-02-27T15:40:28.560Z,14.23
2019-02-27T15:42:54.410Z,12.57
2019-02-27T15:45:24.134Z,13.03
2019-02-27T15:47:52.788Z,12.77
2019-02-27T15:50:37.517Z,12.90
2019-02-27T15:53:06.294Z,13.63
2019-02-27T15:55:35.361Z,14.07
2019-02-27T15:58:04.225Z,13.10
2019-02-27T16:00:32.684Z,12.97
2019-02-27T16:03:01.156Z,12.37
2019-02-27T16:05:31.505Z,12.53
2019-02-27T16:08:00.385Z,14.20
2019-02-27T16:10:29.313Z,12.63
2019-02-27T16:13:01.047Z,12.93
2019-02-27T16:15:28.109Z,14.57
2019-02-27T16:17:56.665Z,14.17
2019-02-27T16:20:27.095Z,15.37
2019-02-27T16:22:55.720Z,18.60
2019-02-27T16:25:28.206Z,15.53
2019-02-27T16:27:56.693Z,23.60
2019-02-27T16:30:32.559Z,16.93
2019-02-27T16:33:00.134Z,19.67
2019-02-27T16:35:28.694Z,16.57
2019-02-27T16:37:57.965Z,19.13
2019-02-27T16:40:30.420Z,15.60
2019-02-27T16:42:58.884Z,14.93
2019-02-27T16:45:33.566Z,15.03
2019-02-27T16:48:00.657Z,14.53
2019-02-27T16:50:29.192Z,16.10
2019-02-27T16:52:57.958Z,13.53
2019-02-27T16:55:27.553Z,12.40
2019-02-27T16:57:57.682Z,15.23
2019-02-27T17:00:31.227Z,14.40
2019-02-27T17:02:59.868Z,14.93
2019-02-27T17:05:28.404Z,13.67
2019-02-27T17:08:00.278Z,14.20
2019-02-27T17:10:33.357Z,13.32
2019-02-27T17:13:02.100Z,15.20
2019-02-27T17:15:34.578Z,59.95
2019-02-27T17:18:01.636Z,117.57
2019-02-27T17:20:30.454Z,14.43
2019-02-27T17:22:59.206Z,15.15
2019-02-27T17:25:29.981Z,14.83
2019-02-27T17:27:58.588Z,15.88
2019-02-27T17:30:37.817Z,14.03
2019-02-27T17:33:05.690Z,14.43
2019-02-27T17:35:34.459Z,16.55
2019-02-27T17:38:03.345Z,13.43
2019-02-27T17:40:36.467Z,15.40
2019-02-27T17:43:02.580Z,15.93
2019-02-27T17:45:31.360Z,15.05
2019-02-27T17:48:00.167Z,13.75
2019-02-27T17:50:31.656Z,13.80
2019-02-27T17:52:59.474Z,17.17
2019-02-27T17:55:28.304Z,14.35
2019-02-27T17:57:58.512Z,13.80
2019-02-27T18:00:30.124Z,14.73
2019-02-27T18:02:58.873Z,15.30
2019-02-27T18:05:28.133Z,13.80
2019-02-27T18:07:57.091Z,14.53
2019-02-27T18:10:25.865Z,14.35
2019-02-27T18:12:54.781Z,13.90
2019-02-27T18:15:24.509Z,15.28
2019-02-27T18:17:53.510Z,84.15
2019-02-27T18:20:25.557Z,16.10
2019-02-27T18:22:52.888Z,14.05
2019-02-27T18:25:22.866Z,13.75
2019-02-27T18:27:51.640Z,12.40
2019-02-27T18:30:24.563Z,11.38
2019-02-27T18:32:53.425Z,12.03
2019-02-27T18:35:22.212Z,12.10
2019-02-27T18:37:54.371Z,12.15
2019-02-27T18:40:21.829Z,11.97
2019-02-27T18:42:55.302Z,11.83
2019-02-27T18:45:22.857Z,12.88
2019-02-27T18:47:51.716Z,13.85
2019-02-27T18:50:20.548Z,12.65
2019-02-27T18:52:49.895Z,13.05
2019-02-27T18:55:18.645Z,12.33
2019-02-27T18:57:47.664Z,13.22
2019-02-27T19:00:24.548Z,12.65
2019-02-27T19:02:58.672Z,14.07
2019-02-27T19:05:27.706Z,14.00
2019-02-27T19:07:56.505Z,13.78
2019-02-27T19:10:25.475Z,12.82
2019-02-27T19:12:54.338Z,13.48
2019-02-27T19:15:25.235Z,13.10
2019-02-27T19:17:54.302Z,13.70
2019-02-27T19:20:38.086Z,13.53
2019-02-27T19:23:09.741Z,13.40
2019-02-27T19:25:38.632Z,13.43
2019-02-27T19:28:07.524Z,17.80
2019-02-27T19:30:38.702Z,16.60
2019-02-27T19:33:07.254Z,13.00
2019-02-27T19:35:36.118Z,12.43
2019-02-27T19:38:04.906Z,12.37
2019-02-27T19:40:33.733Z,12.25
2019-02-27T19:43:04.054Z,11.18
2019-02-27T19:45:35.985Z,11.78
2019-02-27T19:48:03.371Z,11.33
2019-02-27T19:50:32.125Z,12.40
2019-02-27T19:53:05.180Z,12.78
2019-02-27T19:55:31.372Z,16.77
2019-02-27T19:58:00.240Z,12.23
2019-02-27T20:00:35.039Z,11.43
2019-02-27T20:03:01.851Z,12.53
2019-02-27T20:05:30.762Z,12.95
2019-02-27T20:07:59.811Z,11.45
2019-02-27T20:10:30.912Z,12.30
2019-02-27T20:12:59.251Z,12.80
2019-02-27T20:15:28.230Z,10.70
2019-02-27T20:17:57.184Z,12.60
2019-02-27T20:20:26.113Z,11.80
2019-02-27T20:22:55.215Z,11.95
2019-02-27T20:25:26.002Z,11.63
2019-02-27T20:27:57.846Z,12.40
2019-02-27T20:30:25.945Z,11.35
2019-02-27T20:32:54.878Z,13.35
2019-02-27T20:35:23.642Z,12.80
2019-02-27T20:37:52.508Z,11.55
2019-02-27T20:40:21.390Z,12.73
2019-02-27T20:42:54.697Z,13.80
2019-02-27T20:45:21.947Z,13.88
2019-02-27T20:47:57.620Z,12.13
2019-02-27T20:50:40.046Z,13.43
2019-02-27T20:53:10.968Z,13.10
2019-02-27T20:55:39.737Z,11.43
2019-02-27T20:58:08.531Z,11.55
2019-02-27T21:00:37.376Z,11.35
2019-02-27T21:03:06.136Z,11.05
2019-02-27T21:05:34.888Z,11.33
2019-02-27T21:08:04.018Z,10.72
2019-02-27T21:10:33.381Z,10.75
2019-02-27T21:13:02.145Z,13.38
2019-02-27T21:15:32.585Z,11.05
2019-02-27T21:18:01.635Z,11.18
2019-02-27T21:20:30.478Z,12.50
2019-02-27T21:23:00.248Z,11.43
2019-02-27T21:25:30.101Z,10.35
2019-02-27T21:27:58.876Z,10.65
2019-02-27T21:30:27.754Z,12.85
2019-02-27T21:32:56.747Z,9.50
2019-02-27T21:35:28.724Z,10.55
2019-02-27T21:37:56.056Z,10.55
2019-02-27T21:40:24.872Z,10.60
2019-02-27T21:42:53.726Z,10.23
2019-02-27T21:45:23.395Z,10.98
2019-02-27T21:47:52.917Z,10.90
2019-02-27T21:50:27.516Z,8.88
2019-02-27T21:52:56.310Z,9.78
2019-02-27T21:55:25.214Z,9.30
2019-02-27T21:57:54.244Z,9.80
2019-02-27T22:00:28.072Z,10.25
2019-02-27T22:02:57.743Z,10.00
2019-02-27T22:05:26.548Z,9.18
2019-02-27T22:07:55.445Z,9.28
2019-02-27T22:10:24.194Z,10.75
2019-02-27T22:12:53.063Z,8.50
2019-02-27T22:15:30.232Z,9.40
2019-02-27T22:17:59.018Z,9.20
2019-02-27T22:20:29.437Z,8.93
2019-02-27T22:22:58.465Z,8.70
2019-02-27T22:25:31.024Z,9.25
2019-02-27T22:27:58.445Z,8.83
2019-02-27T22:30:27.377Z,9.08
2019-02-27T22:32:56.139Z,9.20
2019-02-27T22:35:24.917Z,10.38
2019-02-27T22:37:53.822Z,12.78
2019-02-27T22:40:23.610Z,10.45
2019-02-27T22:42:52.414Z,10.53
2019-02-27T22:45:21.465Z,11.22
2019-02-27T22:47:54.002Z,10.35
2019-02-27T22:50:21.653Z,10.20
2019-02-27T22:52:54.259Z,9.48
2019-02-27T22:55:21.061Z,10.00
2019-02-27T22:57:49.855Z,9.55
2019-02-27T23:00:44.127Z,9.78
2019-02-27T23:03:12.930Z,11.30
2019-02-27T23:05:41.697Z,10.03
2019-02-27T23:08:10.474Z,12.78
2019-02-27T23:10:39.239Z,8.65
2019-02-27T23:13:12.392Z,8.35
2019-02-27T23:15:40.033Z,8.63
2019-02-27T23:18:08.874Z,8.13
2019-02-27T23:20:37.649Z,9.40
2019-02-27T23:23:06.447Z,8.55
2019-02-27T23:25:35.200Z,8.85
2019-02-27T23:28:04.031Z,9.10
2019-02-27T23:30:32.776Z,8.35
2019-02-27T23:33:02.237Z,8.25
2019-02-27T23:35:31.712Z,9.33
2019-02-27T23:38:03.227Z,8.13
2019-02-27T23:40:31.046Z,8.65
2019-02-27T23:43:03.404Z,10.30
2019-02-27T23:45:30.265Z,9.78
2019-02-27T23:47:59.247Z,7.83
2019-02-27T23:50:29.536Z,9.30
2019-02-27T23:52:58.316Z,8.95
2019-02-27T23:55:27.052Z,9.55
2019-02-27T23:57:57.806Z,9.40
